Forside
METAR-TAF:

METAR-TAF

Lufthavne :

Woomera, Australien

Breddekreds: 31-08S, længdekreds: 136-49E, højde: 165 m

Aktuelle vejr

Denne rapport blev lavet for 27 minutter siden, kl. 02:00 UTC
Vind 5 kt fra østnordøst, varierende mellem nordnordøst og øst
Temperatur 28°C
Fugtighed 28%
Tryk 1019 hPa
Sigt 10 km eller mere

METAR: YPWR 210200Z AUTO 07005KT 030V090 9999 // NCD 28/08 Q1019

Tid: 12:57 (02:27 UTC)

Vejrudsigter

Denne rapport blev lavet for 4 timer og 15 minutter siden, kl. 22:12 UTC
Foreløbig gælder fra 21 på 00 UTC til 21 på 18 UTC
Vind 14 kt fra sydsydøst
Sigt 10 km eller mere
ingen skyer under 1500m og ingen cumulonimbus

TAF: YPWR 202212Z 2100/2118 16014KT CAVOK

Vejrobservationer og prognoser fra mere end 4000 lufthavne (METAR og TAF).

De gule og røde prikker repræsenterer de meteorologiske stationer.

Flyt musen over at se navnet på stationen.

Så klik over at se vejr observationer og prognoser.

At skifte det kort: Klik på de grønne knapper med et sort kors for at zoome ind; på den grønne knap med en bindestreg for at zoome ud; eller på de grønne pile for tilstødende kort.


METAR-TAF: